createdAt,value
2022-08-28T00:01:27.804Z,11.60
2022-08-28T00:03:54.619Z,11.60
2022-08-28T00:06:22.035Z,11.50
2022-08-28T00:08:48.855Z,11.50
2022-08-28T00:11:17.102Z,11.40
2022-08-28T00:13:44.475Z,11.40
2022-08-28T00:16:11.344Z,11.40
2022-08-28T00:18:38.234Z,11.30
2022-08-28T00:21:06.193Z,11.30
2022-08-28T00:23:42.697Z,11.20
2022-08-28T00:26:11.483Z,11.20
2022-08-28T00:28:39.631Z,11.20
2022-08-28T00:31:09.073Z,11.20
2022-08-28T00:33:36.592Z,11.10
2022-08-28T00:36:03.966Z,11.10
2022-08-28T00:38:30.889Z,11.00
2022-08-28T00:41:01.224Z,11.00
2022-08-28T00:43:36.769Z,11.00
2022-08-28T00:46:12.822Z,11.00
2022-08-28T00:48:40.327Z,11.00
2022-08-28T00:51:09.512Z,11.00
2022-08-28T00:53:36.483Z,11.00
2022-08-28T00:56:10.368Z,11.00
2022-08-28T00:58:44.719Z,10.90
2022-08-28T01:01:13.827Z,10.90
2022-08-28T01:03:43.346Z,10.90
2022-08-28T01:06:13.192Z,11.00
2022-08-28T01:08:43.397Z,10.90
2022-08-28T01:11:15.499Z,10.80
2022-08-28T01:13:45.008Z,10.80
2022-08-28T01:16:14.994Z,10.70
2022-08-28T01:18:46.091Z,10.80
2022-08-28T01:21:20.450Z,10.80
2022-08-28T01:23:54.488Z,10.70
2022-08-28T01:26:24.421Z,10.70
2022-08-28T01:28:52.047Z,10.70
2022-08-28T01:31:20.305Z,10.80
2022-08-28T01:33:47.988Z,10.70
2022-08-28T01:36:16.754Z,10.70
2022-08-28T01:38:48.783Z,10.70
2022-08-28T01:41:17.549Z,10.70
2022-08-28T01:43:44.424Z,10.60
2022-08-28T01:46:11.812Z,10.60
2022-08-28T01:48:41.570Z,10.60
2022-08-28T01:51:09.496Z,10.60
2022-08-28T01:53:36.569Z,10.50
2022-08-28T01:56:07.858Z,10.50
2022-08-28T01:58:38.251Z,10.50
2022-08-28T02:01:09.526Z,10.40
2022-08-28T02:03:36.406Z,10.50
2022-08-28T02:06:03.273Z,10.40
2022-08-28T02:08:30.681Z,10.40
2022-08-28T02:10:57.689Z,10.40
2022-08-28T02:13:25.700Z,10.40
2022-08-28T02:15:54.594Z,10.40
2022-08-28T02:18:21.555Z,10.30
2022-08-28T02:20:48.502Z,10.30
2022-08-28T02:23:16.531Z,10.20
2022-08-28T02:25:43.384Z,10.20
2022-08-28T02:28:10.219Z,10.20
2022-08-28T02:30:40.954Z,10.10
2022-08-28T02:33:09.171Z,10.10
2022-08-28T02:35:36.018Z,10.00
2022-08-28T02:38:03.607Z,10.10
2022-08-28T02:40:30.594Z,10.00
2022-08-28T02:42:57.552Z,10.10
2022-08-28T02:45:24.952Z,10.00
2022-08-28T02:47:53.376Z,10.00
2022-08-28T02:50:21.951Z,10.10
2022-08-28T02:52:49.666Z,10.00
2022-08-28T02:55:18.865Z,10.00
2022-08-28T02:57:46.835Z,10.00
2022-08-28T03:00:18.922Z,10.00
2022-08-28T03:02:46.399Z,10.00
2022-08-28T03:05:16.486Z,10.10
2022-08-28T03:07:44.664Z,10.00
2022-08-28T03:10:11.558Z,10.00
2022-08-28T03:12:39.217Z,9.90
2022-08-28T03:15:07.765Z,9.90
2022-08-28T03:17:35.539Z,9.90
2022-08-28T03:20:04.676Z,9.90
2022-08-28T03:22:31.455Z,9.80
2022-08-28T03:24:59.898Z,9.90
2022-08-28T03:27:27.132Z,9.90
2022-08-28T03:29:53.901Z,9.90
2022-08-28T03:32:20.654Z,9.90
2022-08-28T03:34:48.018Z,9.90
2022-08-28T03:37:14.803Z,9.90
2022-08-28T03:39:41.630Z,9.80
2022-08-28T03:42:10.451Z,9.80
2022-08-28T03:44:40.567Z,9.90
2022-08-28T03:47:07.926Z,9.90
2022-08-28T03:49:35.304Z,9.90
2022-08-28T03:52:02.295Z,9.80
2022-08-28T03:54:29.066Z,9.90
2022-08-28T03:56:56.443Z,9.80
2022-08-28T03:59:26.692Z,9.80
2022-08-28T04:02:00.862Z,9.80
2022-08-28T04:04:27.767Z,9.80
2022-08-28T04:06:54.586Z,9.70
2022-08-28T04:09:22.025Z,9.70
2022-08-28T04:11:48.800Z,9.70
2022-08-28T04:14:15.590Z,9.70
2022-08-28T04:16:44.354Z,9.60
2022-08-28T04:19:11.133Z,9.70
2022-08-28T04:21:37.940Z,9.70
2022-08-28T04:24:09.370Z,9.70
2022-08-28T04:26:36.492Z,9.70
2022-08-28T04:29:04.182Z,9.70
2022-08-28T04:31:32.561Z,9.70
2022-08-28T04:34:02.391Z,9.70
2022-08-28T04:36:30.199Z,9.70
2022-08-28T04:38:57.560Z,9.70
2022-08-28T04:41:24.461Z,9.70
2022-08-28T04:43:52.028Z,9.70
2022-08-28T04:46:19.034Z,9.70
2022-08-28T04:48:45.901Z,9.70
2022-08-28T04:51:14.892Z,9.70
2022-08-28T04:53:42.351Z,9.70
2022-08-28T04:56:11.708Z,9.80
2022-08-28T04:58:40.171Z,9.80
2022-08-28T05:01:10.300Z,9.80
2022-08-28T05:03:37.191Z,9.80
2022-08-28T05:06:05.507Z,9.80
2022-08-28T05:08:33.895Z,9.80
2022-08-28T05:11:10.802Z,9.80
2022-08-28T05:13:38.498Z,9.90
2022-08-28T05:16:06.184Z,9.90
2022-08-28T05:18:33.213Z,10.00
2022-08-28T05:21:00.796Z,10.00
2022-08-28T05:23:28.097Z,10.10
2022-08-28T05:25:56.536Z,10.10
2022-08-28T05:28:23.854Z,10.20
2022-08-28T05:30:51.137Z,10.20
2022-08-28T05:33:18.155Z,10.30
2022-08-28T05:35:46.930Z,10.40
2022-08-28T05:38:15.923Z,10.40
2022-08-28T05:40:43.055Z,10.60
2022-08-28T05:43:13.558Z,10.60
2022-08-28T05:45:40.525Z,10.70
2022-08-28T05:48:07.562Z,10.70
2022-08-28T05:50:37.559Z,10.80
2022-08-28T05:53:04.374Z,11.00
2022-08-28T05:55:31.564Z,11.20
2022-08-28T05:57:58.943Z,11.30
2022-08-28T06:00:27.051Z,11.40
2022-08-28T06:02:53.810Z,11.50
2022-08-28T06:05:21.173Z,11.70
2022-08-28T06:07:47.927Z,11.70
2022-08-28T06:10:14.851Z,11.80
2022-08-28T06:12:42.258Z,12.10
2022-08-28T06:15:09.990Z,13.30
2022-08-28T06:17:38.073Z,14.60
2022-08-28T06:20:06.365Z,15.10
2022-08-28T06:22:33.176Z,15.30
2022-08-28T06:24:59.946Z,16.00
2022-08-28T06:27:27.319Z,16.40
2022-08-28T06:29:54.092Z,16.50
2022-08-28T06:32:20.898Z,16.70
2022-08-28T06:34:49.752Z,16.70
2022-08-28T06:37:16.519Z,16.80
2022-08-28T06:39:43.283Z,16.80
2022-08-28T06:42:10.731Z,17.40
2022-08-28T06:44:37.525Z,17.50
2022-08-28T06:47:04.600Z,18.00
2022-08-28T06:49:31.984Z,18.10
2022-08-28T06:54:07.984Z,17.20
2022-08-28T06:56:35.695Z,17.70
2022-08-28T06:59:04.856Z,17.90
2022-08-28T07:01:33.495Z,18.30
2022-08-28T07:04:03.293Z,17.90
2022-08-28T07:06:33.122Z,18.10
2022-08-28T07:09:00.889Z,18.30
2022-08-28T07:11:30.960Z,19.20
2022-08-28T07:13:58.560Z,19.20
2022-08-28T07:16:28.501Z,18.00
2022-08-28T07:18:59.107Z,18.40
2022-08-28T07:21:26.898Z,18.40
2022-08-28T07:23:55.318Z,18.30
2022-08-28T07:26:24.288Z,18.30
2022-08-28T07:28:53.582Z,19.10
2022-08-28T07:31:36.765Z,19.50
2022-08-28T07:34:04.206Z,19.10
2022-08-28T07:36:46.346Z,19.60
2022-08-28T07:39:15.416Z,19.00
2022-08-28T07:41:44.016Z,19.10
2022-08-28T07:44:13.190Z,19.40
2022-08-28T07:46:41.341Z,18.50
2022-08-28T07:49:08.936Z,18.10
2022-08-28T07:51:36.815Z,17.30
2022-08-28T07:54:05.025Z,17.20
2022-08-28T07:56:35.052Z,17.40
2022-08-28T07:59:02.054Z,17.90
2022-08-28T08:01:36.038Z,17.90
2022-08-28T08:04:04.477Z,18.20
2022-08-28T08:06:33.230Z,18.60
2022-08-28T08:09:06.000Z,18.50
2022-08-28T08:11:34.039Z,17.80
2022-08-28T08:14:03.774Z,18.00
2022-08-28T08:16:34.574Z,18.00
2022-08-28T08:19:02.655Z,17.70
2022-08-28T08:21:30.407Z,17.80
2022-08-28T08:23:57.926Z,17.80
2022-08-28T08:26:27.039Z,17.90
2022-08-28T08:28:53.878Z,17.90
2022-08-28T08:31:25.319Z,17.90
2022-08-28T08:33:56.372Z,18.30
2022-08-28T08:36:25.154Z,18.40
2022-08-28T08:39:02.574Z,18.40
2022-08-28T08:41:41.786Z,18.50
2022-08-28T08:44:21.539Z,18.80
2022-08-28T08:46:57.837Z,18.90
2022-08-28T08:49:32.791Z,18.40
2022-08-28T08:52:19.526Z,18.90
2022-08-28T08:55:02.712Z,18.40
2022-08-28T08:57:32.110Z,19.00
2022-08-28T08:59:59.936Z,19.40
2022-08-28T09:02:32.620Z,18.80
2022-08-28T09:05:06.204Z,18.80
2022-08-28T09:07:38.170Z,19.60
2022-08-28T09:10:12.272Z,18.30
2022-08-28T09:12:51.907Z,17.90
2022-08-28T09:15:30.309Z,17.60
2022-08-28T09:18:08.025Z,17.80
2022-08-28T09:20:40.667Z,17.40
2022-08-28T09:23:12.530Z,17.40
2022-08-28T09:25:52.251Z,17.30
2022-08-28T09:28:22.437Z,18.20
2022-08-28T09:31:05.815Z,18.30
2022-08-28T09:33:37.702Z,18.90
2022-08-28T09:36:33.141Z,19.10
2022-08-28T09:39:09.076Z,20.00
2022-08-28T09:41:40.273Z,19.90
2022-08-28T09:44:07.135Z,20.00
2022-08-28T09:46:35.005Z,19.50
2022-08-28T09:49:09.098Z,19.70
2022-08-28T09:51:37.503Z,19.50
2022-08-28T09:54:14.485Z,19.20
2022-08-28T09:56:44.607Z,18.70
2022-08-28T09:59:13.886Z,18.50
2022-08-28T10:01:51.052Z,18.90
2022-08-28T10:04:41.256Z,18.40
2022-08-28T10:07:15.169Z,18.50
2022-08-28T10:09:51.439Z,18.60
2022-08-28T10:12:33.002Z,19.00
2022-08-28T10:15:11.028Z,18.60
2022-08-28T10:17:53.882Z,18.30
2022-08-28T10:20:31.712Z,18.80
2022-08-28T10:23:08.295Z,20.40
2022-08-28T10:25:46.169Z,19.60
2022-08-28T10:28:27.036Z,18.90
2022-08-28T10:31:07.553Z,18.90
2022-08-28T10:33:57.538Z,18.70
2022-08-28T10:36:34.663Z,18.60
2022-08-28T10:39:17.682Z,19.40
2022-08-28T10:41:49.286Z,19.80
2022-08-28T10:44:25.420Z,20.50
2022-08-28T10:46:57.734Z,21.60
2022-08-28T10:49:29.083Z,21.70
2022-08-28T10:52:02.878Z,21.60
2022-08-28T10:54:38.836Z,20.30
2022-08-28T10:57:15.006Z,19.00
2022-08-28T10:59:45.405Z,18.80
2022-08-28T11:02:14.090Z,19.00
2022-08-28T11:04:41.123Z,20.00
2022-08-28T11:07:11.485Z,19.80
2022-08-28T11:09:43.752Z,19.20
2022-08-28T11:12:35.715Z,19.20
2022-08-28T11:15:37.426Z,20.80
2022-08-28T11:18:36.247Z,20.80
2022-08-28T11:21:11.951Z,20.00
2022-08-28T11:23:43.482Z,19.50
2022-08-28T11:26:29.965Z,19.50
2022-08-28T11:29:00.085Z,20.20
2022-08-28T11:31:37.351Z,19.70
2022-08-28T11:34:05.531Z,19.30
2022-08-28T11:36:58.586Z,19.90
2022-08-28T11:39:28.557Z,21.00
2022-08-28T11:42:36.071Z,20.40
2022-08-28T11:45:03.374Z,19.90
2022-08-28T11:47:53.004Z,19.40
2022-08-28T11:50:27.113Z,20.20
2022-08-28T11:53:39.988Z,20.40
2022-08-28T11:56:36.283Z,19.60
2022-08-28T11:59:35.127Z,19.70
2022-08-28T12:02:50.703Z,20.50
2022-08-28T12:05:44.282Z,20.70
2022-08-28T12:08:56.417Z,22.30
2022-08-28T12:12:03.516Z,21.50
2022-08-28T12:14:59.083Z,22.80
2022-08-28T12:17:39.973Z,21.00
2022-08-28T12:20:13.062Z,20.40
2022-08-28T12:22:47.017Z,20.10
2022-08-28T12:25:24.692Z,20.50
2022-08-28T12:27:52.638Z,21.40
2022-08-28T12:30:30.797Z,22.00
2022-08-28T12:33:11.408Z,22.10
2022-08-28T12:35:44.232Z,22.70
2022-08-28T12:38:19.038Z,20.90
2022-08-28T12:40:49.382Z,20.40
2022-08-28T12:43:31.318Z,20.40
2022-08-28T12:46:03.103Z,20.40
2022-08-28T12:48:33.010Z,20.60
2022-08-28T12:51:03.811Z,20.60
2022-08-28T12:53:41.799Z,20.90
2022-08-28T12:56:15.411Z,20.00
2022-08-28T12:58:44.015Z,20.40
2022-08-28T13:01:15.031Z,21.00
2022-08-28T13:03:47.838Z,21.80
2022-08-28T13:06:21.997Z,22.70
2022-08-28T13:08:49.680Z,21.10
2022-08-28T13:11:21.256Z,20.00
2022-08-28T13:13:50.922Z,19.60
2022-08-28T13:16:38.754Z,19.30
2022-08-28T13:19:20.963Z,19.60
2022-08-28T13:21:55.913Z,19.50
2022-08-28T13:24:36.283Z,19.50
2022-08-28T13:27:08.146Z,20.10
2022-08-28T13:29:37.231Z,20.70
2022-08-28T13:32:08.547Z,20.60
2022-08-28T13:34:37.610Z,20.60
2022-08-28T13:37:14.788Z,20.70
2022-08-28T13:39:48.011Z,21.60
2022-08-28T13:42:16.686Z,21.90
2022-08-28T13:44:46.011Z,22.80
2022-08-28T13:47:17.185Z,23.10
2022-08-28T13:49:46.805Z,22.40
2022-08-28T13:52:14.476Z,21.90
2022-08-28T13:54:45.234Z,22.00
2022-08-28T13:57:12.873Z,22.30
2022-08-28T13:59:40.931Z,21.60
2022-08-28T14:02:11.710Z,21.00
2022-08-28T14:04:39.935Z,20.40
2022-08-28T14:07:09.819Z,20.20
2022-08-28T14:09:36.908Z,19.90
2022-08-28T14:12:05.829Z,20.20
2022-08-28T14:14:33.110Z,21.00
2022-08-28T14:17:00.057Z,21.00
2022-08-28T14:19:27.620Z,21.30
2022-08-28T14:21:57.521Z,21.90
2022-08-28T14:24:27.425Z,22.50
2022-08-28T14:26:54.967Z,22.10
2022-08-28T14:29:22.108Z,21.00
2022-08-28T14:31:49.054Z,20.60
2022-08-28T14:34:19.019Z,21.00
2022-08-28T14:36:47.854Z,21.10
2022-08-28T14:39:16.759Z,20.30
2022-08-28T14:41:45.315Z,20.00
2022-08-28T14:44:12.627Z,20.50
2022-08-28T14:46:41.997Z,20.10
2022-08-28T14:49:12.470Z,20.30
2022-08-28T14:51:41.488Z,20.40
2022-08-28T14:54:13.263Z,20.60
2022-08-28T14:56:43.272Z,21.20
2022-08-28T14:59:17.547Z,20.70
2022-08-28T15:01:48.067Z,20.90
2022-08-28T15:04:18.226Z,20.80
2022-08-28T15:06:45.751Z,20.90
2022-08-28T15:09:14.806Z,20.80
2022-08-28T15:11:44.823Z,20.80
2022-08-28T15:14:12.058Z,20.60
2022-08-28T15:16:41.175Z,21.10
2022-08-28T15:19:09.717Z,21.30
2022-08-28T15:21:38.482Z,20.90
2022-08-28T15:24:07.423Z,21.10
2022-08-28T15:26:34.983Z,20.60
2022-08-28T15:29:04.018Z,20.70
2022-08-28T15:31:32.660Z,21.40
2022-08-28T15:34:03.624Z,20.70
2022-08-28T15:36:32.632Z,20.90
2022-08-28T15:39:00.872Z,21.10
2022-08-28T15:41:27.950Z,20.70
2022-08-28T15:43:56.946Z,21.10
2022-08-28T15:46:26.368Z,20.90
2022-08-28T15:48:54.438Z,20.50
2022-08-28T15:51:25.712Z,20.10
2022-08-28T15:53:53.574Z,19.90
2022-08-28T15:56:20.418Z,20.00
2022-08-28T15:58:47.296Z,19.70
2022-08-28T16:01:17.120Z,19.90
2022-08-28T16:03:45.385Z,19.90
2022-08-28T16:06:14.810Z,20.00
2022-08-28T16:08:42.983Z,19.80
2022-08-28T16:11:10.427Z,19.50
2022-08-28T16:13:37.227Z,19.40
2022-08-28T16:16:04.780Z,19.80
2022-08-28T16:18:31.619Z,19.70
2022-08-28T16:21:04.593Z,19.70
2022-08-28T16:23:33.317Z,19.60
2022-08-28T16:26:00.855Z,19.60
2022-08-28T16:28:27.767Z,19.40
2022-08-28T16:30:55.195Z,19.70
2022-08-28T16:33:22.236Z,19.50
2022-08-28T16:35:54.903Z,19.50
2022-08-28T16:38:25.503Z,19.40
2022-08-28T16:40:52.602Z,19.10
2022-08-28T16:43:19.395Z,19.10
2022-08-28T16:45:47.395Z,19.10
2022-08-28T16:48:15.458Z,18.90
2022-08-28T16:50:44.264Z,18.70
2022-08-28T16:53:11.827Z,18.60
2022-08-28T16:55:40.000Z,18.50
2022-08-28T16:58:09.556Z,18.50
2022-08-28T17:00:52.374Z,18.60
2022-08-28T17:03:22.043Z,18.70
2022-08-28T17:05:54.876Z,18.60
2022-08-28T17:08:22.095Z,18.50
2022-08-28T17:10:53.102Z,18.50
2022-08-28T17:13:20.481Z,18.30
2022-08-28T17:15:47.298Z,18.20
2022-08-28T17:18:16.643Z,18.10
2022-08-28T17:20:44.031Z,18.00
2022-08-28T17:23:13.907Z,18.10
2022-08-28T17:25:40.848Z,18.00
2022-08-28T17:28:09.572Z,18.00
2022-08-28T17:30:36.374Z,18.00
2022-08-28T17:33:03.287Z,17.90
2022-08-28T17:35:30.922Z,17.90
2022-08-28T17:38:07.269Z,17.70
2022-08-28T17:40:34.758Z,17.50
2022-08-28T17:43:01.570Z,17.40
2022-08-28T17:45:29.938Z,17.20
2022-08-28T17:47:57.397Z,17.10
2022-08-28T17:50:24.211Z,17.00
2022-08-28T17:52:51.593Z,16.90
2022-08-28T17:55:19.503Z,16.80
2022-08-28T17:57:46.283Z,16.80
2022-08-28T18:00:17.322Z,16.70
2022-08-28T18:02:49.478Z,16.70
2022-08-28T18:05:16.514Z,16.50
2022-08-28T18:07:43.300Z,16.40
2022-08-28T18:10:11.007Z,16.40
2022-08-28T18:12:38.240Z,16.30
2022-08-28T18:15:07.151Z,16.30
2022-08-28T18:17:35.963Z,16.20
2022-08-28T18:20:04.730Z,16.20
2022-08-28T18:22:34.984Z,16.10
2022-08-28T18:25:01.761Z,16.10
2022-08-28T18:27:28.537Z,16.00
2022-08-28T18:29:55.931Z,15.90
2022-08-28T18:32:22.847Z,15.90
2022-08-28T18:34:49.744Z,15.80
2022-08-28T18:37:20.769Z,15.80
2022-08-28T18:39:51.730Z,15.70
2022-08-28T18:42:24.872Z,15.50
2022-08-28T18:44:51.682Z,15.50
2022-08-28T18:47:18.458Z,15.40
2022-08-28T18:49:47.288Z,15.50
2022-08-28T18:52:14.331Z,15.40
2022-08-28T18:54:42.482Z,15.30
2022-08-28T18:57:11.695Z,15.30
2022-08-28T18:59:38.779Z,15.10
2022-08-28T19:02:05.729Z,15.00
2022-08-28T19:04:33.239Z,14.90
2022-08-28T19:07:00.006Z,14.90
2022-08-28T19:09:32.294Z,14.90
2022-08-28T19:12:02.515Z,14.70
2022-08-28T19:14:29.290Z,14.70
2022-08-28T19:16:56.315Z,14.60
2022-08-28T19:19:24.150Z,14.60
2022-08-28T19:21:51.666Z,14.50
2022-08-28T19:24:18.510Z,14.50
2022-08-28T19:26:47.544Z,14.40
2022-08-28T19:29:16.043Z,14.40
2022-08-28T19:31:43.688Z,14.30
2022-08-28T19:34:11.760Z,14.30
2022-08-28T19:36:39.280Z,14.30
2022-08-28T19:39:06.798Z,14.20
2022-08-28T19:41:34.553Z,14.20
2022-08-28T19:44:01.523Z,14.10
2022-08-28T19:46:29.914Z,14.10
2022-08-28T19:48:57.447Z,14.00
2022-08-28T19:51:26.661Z,13.90
2022-08-28T19:53:58.255Z,13.90
2022-08-28T19:56:28.196Z,13.90
2022-08-28T19:58:56.372Z,13.80
2022-08-28T20:01:23.385Z,13.80
2022-08-28T20:03:53.892Z,13.80
2022-08-28T20:06:20.675Z,13.80
2022-08-28T20:08:47.543Z,13.80
2022-08-28T20:11:16.373Z,13.80
2022-08-28T20:13:43.267Z,13.80
2022-08-28T20:16:10.065Z,13.70
2022-08-28T20:18:40.003Z,13.70
2022-08-28T20:21:09.677Z,13.70
2022-08-28T20:23:36.687Z,13.70
2022-08-28T20:26:04.623Z,13.60
2022-08-28T20:28:31.640Z,13.50
2022-08-28T20:31:06.974Z,13.50
2022-08-28T20:33:36.627Z,13.50
2022-08-28T20:36:05.216Z,13.40
2022-08-28T20:38:33.507Z,13.50
2022-08-28T20:41:05.075Z,13.50
2022-08-28T20:43:31.971Z,13.50
2022-08-28T20:46:01.462Z,13.50
2022-08-28T20:48:33.316Z,13.50
2022-08-28T20:51:02.853Z,13.40
2022-08-28T20:53:37.473Z,13.30
2022-08-28T20:56:09.467Z,13.30
2022-08-28T20:58:36.648Z,13.30
2022-08-28T21:01:03.912Z,13.30
2022-08-28T21:03:31.307Z,13.30
2022-08-28T21:05:58.068Z,13.30
2022-08-28T21:08:27.862Z,13.30
2022-08-28T21:10:55.244Z,13.30
2022-08-28T21:13:26.230Z,13.20
2022-08-28T21:15:54.124Z,13.30
2022-08-28T21:18:21.495Z,13.40
2022-08-28T21:20:50.643Z,13.30
2022-08-28T21:23:17.441Z,13.20
2022-08-28T21:25:49.510Z,13.20
2022-08-28T21:28:16.543Z,13.10
2022-08-28T21:30:44.916Z,13.10
2022-08-28T21:33:12.447Z,13.20
2022-08-28T21:35:40.186Z,13.10
2022-08-28T21:38:13.343Z,13.10
2022-08-28T21:40:41.365Z,13.10
2022-08-28T21:43:11.032Z,13.10
2022-08-28T21:45:37.916Z,13.10
2022-08-28T21:48:08.588Z,13.10
2022-08-28T21:50:35.451Z,13.10
2022-08-28T21:53:02.227Z,13.00
2022-08-28T21:55:31.630Z,13.10
2022-08-28T21:57:58.368Z,13.00
2022-08-28T22:00:25.303Z,13.00
2022-08-28T22:02:52.758Z,13.00
2022-08-28T22:05:21.325Z,13.00
2022-08-28T22:07:50.904Z,12.90
2022-08-28T22:10:18.290Z,12.90
2022-08-28T22:12:45.167Z,12.90
2022-08-28T22:15:11.955Z,12.80
2022-08-28T22:17:39.479Z,12.80
2022-08-28T22:20:10.140Z,12.80
2022-08-28T22:22:38.261Z,12.80
2022-08-28T22:25:06.895Z,12.70
2022-08-28T22:27:33.670Z,12.70
2022-08-28T22:30:00.685Z,12.70
2022-08-28T22:32:28.169Z,12.60
2022-08-28T22:37:37.849Z,12.50
2022-08-28T22:40:09.543Z,12.50
2022-08-28T22:42:41.715Z,12.50
2022-08-28T22:45:10.176Z,12.40
2022-08-28T22:47:37.087Z,12.50
2022-08-28T22:50:05.571Z,12.40
2022-08-28T22:52:35.136Z,12.30
2022-08-28T22:55:03.391Z,12.30
2022-08-28T22:57:34.336Z,12.20
2022-08-28T23:00:01.250Z,12.10
2022-08-28T23:02:28.038Z,12.00
2022-08-28T23:04:59.615Z,11.90
2022-08-28T23:07:29.518Z,11.90
2022-08-28T23:09:58.834Z,11.90
2022-08-28T23:12:29.836Z,11.80
2022-08-28T23:15:00.735Z,11.70
2022-08-28T23:17:27.891Z,11.80
2022-08-28T23:19:55.382Z,11.70
2022-08-28T23:22:22.788Z,11.70
2022-08-28T23:24:55.651Z,11.70
2022-08-28T23:27:38.226Z,11.60
2022-08-28T23:30:11.033Z,11.50
2022-08-28T23:32:38.432Z,11.50
2022-08-28T23:35:07.968Z,11.50
2022-08-28T23:37:36.422Z,11.40
2022-08-28T23:40:03.985Z,11.30
2022-08-28T23:42:32.135Z,11.20
2022-08-28T23:44:58.952Z,11.20
2022-08-28T23:47:27.826Z,11.10
2022-08-28T23:49:54.600Z,11.10
2022-08-28T23:52:21.403Z,11.10
2022-08-28T23:54:49.615Z,11.10
2022-08-28T23:57:16.454Z,11.10
2022-08-28T23:59:43.967Z,11.10
